sensor_id;sensor_type;location;lat;lon;timestamp;P1;durP1;ratioP1;P2;durP2;ratioP2
3779;SDS011;1905;52.482;9.802;2022-12-16T00:01:11;12.70;;;6.87;;
3779;SDS011;1905;52.482;9.802;2022-12-16T00:03:46;13.97;;;7.50;;
3779;SDS011;1905;52.482;9.802;2022-12-16T00:06:17;8.03;;;5.33;;
3779;SDS011;1905;52.482;9.802;2022-12-16T00:08:46;12.33;;;7.73;;
3779;SDS011;1905;52.482;9.802;2022-12-16T00:11:14;7.43;;;6.73;;
3779;SDS011;1905;52.482;9.802;2022-12-16T00:13:41;9.40;;;7.03;;
3779;SDS011;1905;52.482;9.802;2022-12-16T00:16:10;9.33;;;4.83;;
3779;SDS011;1905;52.482;9.802;2022-12-16T00:18:39;9.90;;;6.70;;
3779;SDS011;1905;52.482;9.802;2022-12-16T00:21:09;7.33;;;6.60;;
3779;SDS011;1905;52.482;9.802;2022-12-16T00:23:37;13.40;;;6.27;;
3779;SDS011;1905;52.482;9.802;2022-12-16T00:26:07;9.33;;;6.33;;
3779;SDS011;1905;52.482;9.802;2022-12-16T00:28:35;7.43;;;5.93;;
3779;SDS011;1905;52.482;9.802;2022-12-16T00:31:04;8.77;;;6.07;;
3779;SDS011;1905;52.482;9.802;2022-12-16T00:33:32;16.10;;;7.87;;
3779;SDS011;1905;52.482;9.802;2022-12-16T00:36:00;17.00;;;8.87;;
3779;SDS011;1905;52.482;9.802;2022-12-16T00:38:29;7.77;;;6.27;;
3779;SDS011;1905;52.482;9.802;2022-12-16T00:40:57;11.27;;;7.43;;
3779;SDS011;1905;52.482;9.802;2022-12-16T00:43:24;8.23;;;5.10;;
3779;SDS011;1905;52.482;9.802;2022-12-16T00:45:52;13.13;;;4.93;;
3779;SDS011;1905;52.482;9.802;2022-12-16T00:48:20;11.63;;;7.17;;
3779;SDS011;1905;52.482;9.802;2022-12-16T00:50:48;9.53;;;5.60;;
3779;SDS011;1905;52.482;9.802;2022-12-16T00:53:20;11.13;;;7.57;;
3779;SDS011;1905;52.482;9.802;2022-12-16T00:55:50;10.63;;;5.97;;
3779;SDS011;1905;52.482;9.802;2022-12-16T00:58:19;13.33;;;6.63;;
3779;SDS011;1905;52.482;9.802;2022-12-16T01:00:46;18.50;;;6.33;;
3779;SDS011;1905;52.482;9.802;2022-12-16T01:03:14;17.93;;;6.37;;
3779;SDS011;1905;52.482;9.802;2022-12-16T01:05:47;12.60;;;6.90;;
3779;SDS011;1905;52.482;9.802;2022-12-16T01:08:15;9.93;;;5.83;;
3779;SDS011;1905;52.482;9.802;2022-12-16T01:10:48;13.00;;;7.33;;
3779;SDS011;1905;52.482;9.802;2022-12-16T01:13:19;4.90;;;3.90;;
3779;SDS011;1905;52.482;9.802;2022-12-16T01:15:47;15.90;;;8.00;;
3779;SDS011;1905;52.482;9.802;2022-12-16T01:18:15;8.13;;;5.50;;
3779;SDS011;1905;52.482;9.802;2022-12-16T01:20:43;12.60;;;6.53;;
3779;SDS011;1905;52.482;9.802;2022-12-16T01:23:11;9.00;;;5.90;;
3779;SDS011;1905;52.482;9.802;2022-12-16T01:25:38;10.30;;;5.93;;
3779;SDS011;1905;52.482;9.802;2022-12-16T01:28:06;4.80;;;4.40;;
3779;SDS011;1905;52.482;9.802;2022-12-16T01:30:35;8.50;;;5.63;;
3779;SDS011;1905;52.482;9.802;2022-12-16T01:33:03;5.70;;;5.17;;
3779;SDS011;1905;52.482;9.802;2022-12-16T01:35:30;7.00;;;6.40;;
3779;SDS011;1905;52.482;9.802;2022-12-16T01:38:18;11.87;;;7.40;;
3779;SDS011;1905;52.482;9.802;2022-12-16T01:40:45;11.40;;;5.77;;
3779;SDS011;1905;52.482;9.802;2022-12-16T01:43:13;7.70;;;4.97;;
3779;SDS011;1905;52.482;9.802;2022-12-16T01:45:42;4.30;;;3.77;;
3779;SDS011;1905;52.482;9.802;2022-12-16T01:48:13;8.57;;;6.13;;
3779;SDS011;1905;52.482;9.802;2022-12-16T01:50:46;10.43;;;6.03;;
3779;SDS011;1905;52.482;9.802;2022-12-16T01:53:18;8.17;;;7.27;;
3779;SDS011;1905;52.482;9.802;2022-12-16T01:55:46;12.93;;;6.77;;
3779;SDS011;1905;52.482;9.802;2022-12-16T01:58:17;9.50;;;4.90;;
3779;SDS011;1905;52.482;9.802;2022-12-16T02:00:49;7.13;;;5.47;;
3779;SDS011;1905;52.482;9.802;2022-12-16T02:03:19;6.73;;;5.53;;
3779;SDS011;1905;52.482;9.802;2022-12-16T02:05:48;6.53;;;4.40;;
3779;SDS011;1905;52.482;9.802;2022-12-16T02:08:16;6.17;;;4.97;;
3779;SDS011;1905;52.482;9.802;2022-12-16T02:10:51;9.60;;;6.10;;
3779;SDS011;1905;52.482;9.802;2022-12-16T02:13:30;11.40;;;8.30;;
3779;SDS011;1905;52.482;9.802;2022-12-16T02:16:08;6.63;;;5.90;;
3779;SDS011;1905;52.482;9.802;2022-12-16T02:18:44;9.53;;;5.70;;
3779;SDS011;1905;52.482;9.802;2022-12-16T02:21:25;4.10;;;3.67;;
3779;SDS011;1905;52.482;9.802;2022-12-16T02:24:19;12.57;;;7.83;;
3779;SDS011;1905;52.482;9.802;2022-12-16T02:27:02;10.00;;;7.83;;
3779;SDS011;1905;52.482;9.802;2022-12-16T02:29:55;14.60;;;6.77;;
3779;SDS011;1905;52.482;9.802;2022-12-16T02:32:36;9.13;;;5.77;;
3779;SDS011;1905;52.482;9.802;2022-12-16T02:35:17;11.70;;;6.90;;
3779;SDS011;1905;52.482;9.802;2022-12-16T02:37:53;10.83;;;6.73;;
3779;SDS011;1905;52.482;9.802;2022-12-16T02:40:30;10.70;;;4.80;;
3779;SDS011;1905;52.482;9.802;2022-12-16T02:43:03;11.40;;;5.80;;
3779;SDS011;1905;52.482;9.802;2022-12-16T02:45:34;5.43;;;4.90;;
3779;SDS011;1905;52.482;9.802;2022-12-16T02:48:04;5.33;;;4.83;;
3779;SDS011;1905;52.482;9.802;2022-12-16T02:50:34;9.00;;;6.07;;
3779;SDS011;1905;52.482;9.802;2022-12-16T02:53:03;14.93;;;9.10;;
3779;SDS011;1905;52.482;9.802;2022-12-16T02:55:38;5.83;;;4.77;;
3779;SDS011;1905;52.482;9.802;2022-12-16T02:58:15;10.00;;;6.17;;
3779;SDS011;1905;52.482;9.802;2022-12-16T03:00:49;17.73;;;5.10;;
3779;SDS011;1905;52.482;9.802;2022-12-16T03:03:29;10.73;;;6.93;;
3779;SDS011;1905;52.482;9.802;2022-12-16T03:06:02;11.03;;;4.03;;
3779;SDS011;1905;52.482;9.802;2022-12-16T03:08:32;10.37;;;5.03;;
3779;SDS011;1905;52.482;9.802;2022-12-16T03:11:04;11.83;;;6.60;;
3779;SDS011;1905;52.482;9.802;2022-12-16T03:13:34;9.90;;;4.80;;
3779;SDS011;1905;52.482;9.802;2022-12-16T03:16:06;6.97;;;5.33;;
3779;SDS011;1905;52.482;9.802;2022-12-16T03:18:39;9.80;;;5.17;;
3779;SDS011;1905;52.482;9.802;2022-12-16T03:21:09;13.73;;;5.13;;
3779;SDS011;1905;52.482;9.802;2022-12-16T03:23:41;8.80;;;5.97;;
3779;SDS011;1905;52.482;9.802;2022-12-16T03:26:14;10.37;;;6.03;;
3779;SDS011;1905;52.482;9.802;2022-12-16T03:28:47;11.73;;;5.57;;
3779;SDS011;1905;52.482;9.802;2022-12-16T03:31:21;8.10;;;6.87;;
3779;SDS011;1905;52.482;9.802;2022-12-16T03:33:57;9.90;;;4.47;;
3779;SDS011;1905;52.482;9.802;2022-12-16T03:36:31;10.07;;;6.10;;
3779;SDS011;1905;52.482;9.802;2022-12-16T03:39:03;8.37;;;5.70;;
3779;SDS011;1905;52.482;9.802;2022-12-16T03:41:33;11.50;;;6.73;;
3779;SDS011;1905;52.482;9.802;2022-12-16T03:44:01;7.77;;;7.03;;
3779;SDS011;1905;52.482;9.802;2022-12-16T03:46:29;14.70;;;6.37;;
3779;SDS011;1905;52.482;9.802;2022-12-16T03:48:59;7.30;;;5.83;;
3779;SDS011;1905;52.482;9.802;2022-12-16T03:51:27;10.87;;;4.60;;
3779;SDS011;1905;52.482;9.802;2022-12-16T03:53:55;10.50;;;5.63;;
3779;SDS011;1905;52.482;9.802;2022-12-16T03:56:22;11.40;;;8.10;;
3779;SDS011;1905;52.482;9.802;2022-12-16T03:58:50;11.97;;;6.70;;
3779;SDS011;1905;52.482;9.802;2022-12-16T04:01:18;8.27;;;4.80;;
3779;SDS011;1905;52.482;9.802;2022-12-16T04:03:45;11.20;;;5.97;;
3779;SDS011;1905;52.482;9.802;2022-12-16T04:06:14;21.27;;;6.63;;
3779;SDS011;1905;52.482;9.802;2022-12-16T04:08:44;6.47;;;5.27;;
3779;SDS011;1905;52.482;9.802;2022-12-16T04:11:11;8.83;;;4.23;;
3779;SDS011;1905;52.482;9.802;2022-12-16T04:13:57;7.67;;;4.07;;
3779;SDS011;1905;52.482;9.802;2022-12-16T04:16:43;7.80;;;6.30;;
3779;SDS011;1905;52.482;9.802;2022-12-16T04:19:29;9.37;;;5.60;;
3779;SDS011;1905;52.482;9.802;2022-12-16T04:22:22;6.33;;;4.60;;
3779;SDS011;1905;52.482;9.802;2022-12-16T04:25:11;10.00;;;5.50;;
3779;SDS011;1905;52.482;9.802;2022-12-16T04:27:41;8.93;;;5.73;;
3779;SDS011;1905;52.482;9.802;2022-12-16T04:30:12;5.57;;;5.03;;
3779;SDS011;1905;52.482;9.802;2022-12-16T04:32:50;13.10;;;5.83;;
3779;SDS011;1905;52.482;9.802;2022-12-16T04:35:41;7.53;;;5.40;;
3779;SDS011;1905;52.482;9.802;2022-12-16T04:38:36;7.60;;;6.97;;
3779;SDS011;1905;52.482;9.802;2022-12-16T04:41:22;12.40;;;5.23;;
3779;SDS011;1905;52.482;9.802;2022-12-16T04:44:10;10.27;;;5.90;;
3779;SDS011;1905;52.482;9.802;2022-12-16T04:46:55;7.70;;;5.60;;
3779;SDS011;1905;52.482;9.802;2022-12-16T04:49:41;7.07;;;5.80;;
3779;SDS011;1905;52.482;9.802;2022-12-16T04:52:26;5.30;;;4.77;;
3779;SDS011;1905;52.482;9.802;2022-12-16T04:55:13;6.03;;;3.70;;
3779;SDS011;1905;52.482;9.802;2022-12-16T04:57:58;9.03;;;5.60;;
3779;SDS011;1905;52.482;9.802;2022-12-16T05:00:45;6.17;;;5.50;;
3779;SDS011;1905;52.482;9.802;2022-12-16T05:03:32;6.23;;;5.07;;
3779;SDS011;1905;52.482;9.802;2022-12-16T05:06:18;12.60;;;7.27;;
3779;SDS011;1905;52.482;9.802;2022-12-16T05:09:04;5.50;;;4.77;;
3779;SDS011;1905;52.482;9.802;2022-12-16T05:12:06;7.67;;;5.20;;
3779;SDS011;1905;52.482;9.802;2022-12-16T05:14:51;6.57;;;5.80;;
3779;SDS011;1905;52.482;9.802;2022-12-16T05:17:36;8.57;;;5.70;;
3779;SDS011;1905;52.482;9.802;2022-12-16T05:20:21;7.57;;;5.60;;
3779;SDS011;1905;52.482;9.802;2022-12-16T05:23:07;7.70;;;6.97;;
3779;SDS011;1905;52.482;9.802;2022-12-16T05:26:01;11.13;;;6.00;;
3779;SDS011;1905;52.482;9.802;2022-12-16T05:28:47;6.93;;;6.23;;
3779;SDS011;1905;52.482;9.802;2022-12-16T05:31:32;9.23;;;6.53;;
3779;SDS011;1905;52.482;9.802;2022-12-16T05:34:17;6.17;;;4.20;;
3779;SDS011;1905;52.482;9.802;2022-12-16T05:37:14;4.80;;;4.40;;
3779;SDS011;1905;52.482;9.802;2022-12-16T05:39:59;7.03;;;5.47;;
3779;SDS011;1905;52.482;9.802;2022-12-16T05:42:46;6.10;;;4.97;;
3779;SDS011;1905;52.482;9.802;2022-12-16T05:45:32;12.23;;;4.77;;
3779;SDS011;1905;52.482;9.802;2022-12-16T05:48:17;9.47;;;6.03;;
3779;SDS011;1905;52.482;9.802;2022-12-16T05:51:05;20.03;;;6.80;;
3779;SDS011;1905;52.482;9.802;2022-12-16T05:53:50;12.17;;;5.97;;
3779;SDS011;1905;52.482;9.802;2022-12-16T05:56:49;6.53;;;5.33;;
3779;SDS011;1905;52.482;9.802;2022-12-16T05:59:34;10.07;;;6.47;;
3779;SDS011;1905;52.482;9.802;2022-12-16T06:02:21;7.80;;;7.13;;
3779;SDS011;1905;52.482;9.802;2022-12-16T06:05:09;5.10;;;4.70;;
3779;SDS011;1905;52.482;9.802;2022-12-16T06:07:54;8.67;;;6.33;;
3779;SDS011;1905;52.482;9.802;2022-12-16T06:10:39;5.93;;;5.43;;
3779;SDS011;1905;52.482;9.802;2022-12-16T06:13:24;7.03;;;4.27;;
3779;SDS011;1905;52.482;9.802;2022-12-16T06:16:09;7.83;;;7.13;;
3779;SDS011;1905;52.482;9.802;2022-12-16T06:19:01;7.60;;;5.73;;
3779;SDS011;1905;52.482;9.802;2022-12-16T06:21:46;8.13;;;5.93;;
3779;SDS011;1905;52.482;9.802;2022-12-16T06:24:31;6.13;;;4.30;;
3779;SDS011;1905;52.482;9.802;2022-12-16T06:27:16;10.20;;;7.47;;
3779;SDS011;1905;52.482;9.802;2022-12-16T06:30:01;6.23;;;3.77;;
3779;SDS011;1905;52.482;9.802;2022-12-16T06:32:47;10.53;;;5.50;;
3779;SDS011;1905;52.482;9.802;2022-12-16T06:35:34;7.73;;;5.67;;
3779;SDS011;1905;52.482;9.802;2022-12-16T06:38:19;5.40;;;4.90;;
3779;SDS011;1905;52.482;9.802;2022-12-16T06:41:04;8.57;;;6.50;;
3779;SDS011;1905;52.482;9.802;2022-12-16T06:43:49;17.13;;;6.20;;
3779;SDS011;1905;52.482;9.802;2022-12-16T06:46:34;10.00;;;6.53;;
3779;SDS011;1905;52.482;9.802;2022-12-16T06:49:19;3.90;;;3.60;;
3779;SDS011;1905;52.482;9.802;2022-12-16T06:52:06;18.77;;;7.83;;
3779;SDS011;1905;52.482;9.802;2022-12-16T06:54:51;12.20;;;7.60;;
3779;SDS011;1905;52.482;9.802;2022-12-16T06:57:36;8.77;;;6.53;;
3779;SDS011;1905;52.482;9.802;2022-12-16T07:00:21;8.10;;;4.40;;
3779;SDS011;1905;52.482;9.802;2022-12-16T07:03:06;16.13;;;5.03;;
3779;SDS011;1905;52.482;9.802;2022-12-16T07:05:54;6.60;;;5.10;;
3779;SDS011;1905;52.482;9.802;2022-12-16T07:08:41;13.90;;;6.80;;
3779;SDS011;1905;52.482;9.802;2022-12-16T07:11:26;12.10;;;4.33;;
3779;SDS011;1905;52.482;9.802;2022-12-16T07:14:11;6.60;;;5.07;;
3779;SDS011;1905;52.482;9.802;2022-12-16T07:16:56;5.53;;;5.03;;
3779;SDS011;1905;52.482;9.802;2022-12-16T07:19:43;8.33;;;4.97;;
3779;SDS011;1905;52.482;9.802;2022-12-16T07:22:28;18.13;;;6.27;;
3779;SDS011;1905;52.482;9.802;2022-12-16T07:25:20;7.40;;;6.70;;
3779;SDS011;1905;52.482;9.802;2022-12-16T07:28:05;8.07;;;7.30;;
3779;SDS011;1905;52.482;9.802;2022-12-16T07:30:51;7.07;;;5.20;;
3779;SDS011;1905;52.482;9.802;2022-12-16T07:33:36;11.80;;;4.50;;
3779;SDS011;1905;52.482;9.802;2022-12-16T07:36:21;10.50;;;6.00;;
3779;SDS011;1905;52.482;9.802;2022-12-16T07:39:06;8.90;;;5.73;;
3779;SDS011;1905;52.482;9.802;2022-12-16T07:41:53;9.23;;;5.60;;
3779;SDS011;1905;52.482;9.802;2022-12-16T07:44:38;7.80;;;6.90;;
3779;SDS011;1905;52.482;9.802;2022-12-16T07:47:23;5.57;;;4.47;;
3779;SDS011;1905;52.482;9.802;2022-12-16T07:50:08;15.60;;;9.13;;
3779;SDS011;1905;52.482;9.802;2022-12-16T07:52:53;15.40;;;7.50;;
3779;SDS011;1905;52.482;9.802;2022-12-16T07:55:39;10.30;;;8.50;;
3779;SDS011;1905;52.482;9.802;2022-12-16T07:58:26;12.00;;;8.43;;
3779;SDS011;1905;52.482;9.802;2022-12-16T08:01:11;15.83;;;9.43;;
3779;SDS011;1905;52.482;9.802;2022-12-16T08:03:57;4.17;;;3.90;;
3779;SDS011;1905;52.482;9.802;2022-12-16T08:06:43;15.87;;;8.70;;
3779;SDS011;1905;52.482;9.802;2022-12-16T08:09:28;23.53;;;11.70;;
3779;SDS011;1905;52.482;9.802;2022-12-16T08:12:13;11.63;;;6.87;;
3779;SDS011;1905;52.482;9.802;2022-12-16T08:14:59;13.30;;;5.53;;
3779;SDS011;1905;52.482;9.802;2022-12-16T08:17:47;10.53;;;7.87;;
3779;SDS011;1905;52.482;9.802;2022-12-16T08:20:34;7.77;;;6.87;;
3779;SDS011;1905;52.482;9.802;2022-12-16T08:23:20;16.70;;;8.60;;
3779;SDS011;1905;52.482;9.802;2022-12-16T08:26:06;15.20;;;8.70;;
3779;SDS011;1905;52.482;9.802;2022-12-16T08:28:51;11.77;;;8.10;;
3779;SDS011;1905;52.482;9.802;2022-12-16T08:31:58;9.97;;;7.97;;
3779;SDS011;1905;52.482;9.802;2022-12-16T08:34:43;22.03;;;10.87;;
3779;SDS011;1905;52.482;9.802;2022-12-16T08:37:28;21.30;;;8.70;;
3779;SDS011;1905;52.482;9.802;2022-12-16T08:40:14;12.50;;;7.30;;
3779;SDS011;1905;52.482;9.802;2022-12-16T08:43:01;10.93;;;8.43;;
3779;SDS011;1905;52.482;9.802;2022-12-16T08:45:47;12.87;;;8.73;;
3779;SDS011;1905;52.482;9.802;2022-12-16T08:48:33;11.33;;;5.93;;
3779;SDS011;1905;52.482;9.802;2022-12-16T08:51:17;10.87;;;8.70;;
3779;SDS011;1905;52.482;9.802;2022-12-16T08:54:03;21.23;;;8.30;;
3779;SDS011;1905;52.482;9.802;2022-12-16T08:56:48;19.90;;;8.97;;
3779;SDS011;1905;52.482;9.802;2022-12-16T08:59:33;16.20;;;7.90;;
3779;SDS011;1905;52.482;9.802;2022-12-16T09:02:19;14.13;;;8.30;;
3779;SDS011;1905;52.482;9.802;2022-12-16T09:05:07;13.43;;;8.60;;
3779;SDS011;1905;52.482;9.802;2022-12-16T09:07:55;17.73;;;11.17;;
3779;SDS011;1905;52.482;9.802;2022-12-16T09:10:43;19.40;;;8.87;;
3779;SDS011;1905;52.482;9.802;2022-12-16T09:13:28;17.80;;;9.13;;
3779;SDS011;1905;52.482;9.802;2022-12-16T09:16:13;18.50;;;9.57;;
3779;SDS011;1905;52.482;9.802;2022-12-16T09:18:58;18.10;;;10.43;;
3779;SDS011;1905;52.482;9.802;2022-12-16T09:21:44;9.27;;;8.30;;
3779;SDS011;1905;52.482;9.802;2022-12-16T09:24:29;18.53;;;12.03;;
3779;SDS011;1905;52.482;9.802;2022-12-16T09:27:15;17.10;;;9.83;;
3779;SDS011;1905;52.482;9.802;2022-12-16T09:30:00;26.33;;;11.00;;
3779;SDS011;1905;52.482;9.802;2022-12-16T09:32:45;28.50;;;12.63;;
3779;SDS011;1905;52.482;9.802;2022-12-16T09:35:35;33.70;;;13.53;;
3779;SDS011;1905;52.482;9.802;2022-12-16T09:38:22;19.13;;;11.73;;
3779;SDS011;1905;52.482;9.802;2022-12-16T09:41:15;27.53;;;10.90;;
3779;SDS011;1905;52.482;9.802;2022-12-16T09:44:22;21.53;;;10.20;;
3779;SDS011;1905;52.482;9.802;2022-12-16T09:47:16;22.90;;;11.20;;
3779;SDS011;1905;52.482;9.802;2022-12-16T09:50:17;22.00;;;11.63;;
3779;SDS011;1905;52.482;9.802;2022-12-16T09:53:06;29.30;;;13.13;;
3779;SDS011;1905;52.482;9.802;2022-12-16T09:55:57;16.77;;;9.27;;
3779;SDS011;1905;52.482;9.802;2022-12-16T09:58:43;19.23;;;12.40;;
3779;SDS011;1905;52.482;9.802;2022-12-16T10:01:32;19.50;;;12.60;;
3779;SDS011;1905;52.482;9.802;2022-12-16T10:04:21;20.23;;;11.80;;
3779;SDS011;1905;52.482;9.802;2022-12-16T10:07:08;18.80;;;12.30;;
3779;SDS011;1905;52.482;9.802;2022-12-16T10:10:02;27.57;;;11.40;;
3779;SDS011;1905;52.482;9.802;2022-12-16T10:13:02;18.20;;;12.30;;
3779;SDS011;1905;52.482;9.802;2022-12-16T10:15:58;14.90;;;10.37;;
3779;SDS011;1905;52.482;9.802;2022-12-16T10:18:50;21.90;;;11.10;;
3779;SDS011;1905;52.482;9.802;2022-12-16T10:21:43;24.47;;;13.10;;
3779;SDS011;1905;52.482;9.802;2022-12-16T10:24:34;23.13;;;12.93;;
3779;SDS011;1905;52.482;9.802;2022-12-16T10:27:32;22.27;;;13.50;;
3779;SDS011;1905;52.482;9.802;2022-12-16T10:30:27;20.33;;;13.60;;
3779;SDS011;1905;52.482;9.802;2022-12-16T10:33:13;20.00;;;11.17;;
3779;SDS011;1905;52.482;9.802;2022-12-16T10:36:00;23.17;;;11.53;;
3779;SDS011;1905;52.482;9.802;2022-12-16T10:38:43;18.43;;;11.70;;
3779;SDS011;1905;52.482;9.802;2022-12-16T10:41:32;18.70;;;11.07;;
3779;SDS011;1905;52.482;9.802;2022-12-16T10:44:22;29.93;;;14.70;;
3779;SDS011;1905;52.482;9.802;2022-12-16T10:47:11;28.47;;;14.67;;
3779;SDS011;1905;52.482;9.802;2022-12-16T10:49:56;14.93;;;9.90;;
3779;SDS011;1905;52.482;9.802;2022-12-16T10:52:43;18.63;;;10.80;;
3779;SDS011;1905;52.482;9.802;2022-12-16T10:55:36;18.10;;;11.77;;
3779;SDS011;1905;52.482;9.802;2022-12-16T10:58:34;21.77;;;12.17;;
3779;SDS011;1905;52.482;9.802;2022-12-16T11:01:27;24.43;;;12.63;;
3779;SDS011;1905;52.482;9.802;2022-12-16T11:04:30;15.93;;;13.17;;
3779;SDS011;1905;52.482;9.802;2022-12-16T11:07:26;28.17;;;12.70;;
3779;SDS011;1905;52.482;9.802;2022-12-16T11:10:22;18.50;;;13.17;;
3779;SDS011;1905;52.482;9.802;2022-12-16T11:13:11;21.83;;;14.30;;
3779;SDS011;1905;52.482;9.802;2022-12-16T11:16:04;20.50;;;12.73;;
3779;SDS011;1905;52.482;9.802;2022-12-16T11:18:51;23.80;;;14.40;;
3779;SDS011;1905;52.482;9.802;2022-12-16T11:21:37;15.20;;;11.00;;
3779;SDS011;1905;52.482;9.802;2022-12-16T11:24:23;23.70;;;12.50;;
3779;SDS011;1905;52.482;9.802;2022-12-16T11:27:12;21.73;;;12.20;;
3779;SDS011;1905;52.482;9.802;2022-12-16T11:29:59;14.87;;;10.83;;
3779;SDS011;1905;52.482;9.802;2022-12-16T11:32:46;25.33;;;15.40;;
3779;SDS011;1905;52.482;9.802;2022-12-16T11:35:35;21.60;;;13.10;;
3779;SDS011;1905;52.482;9.802;2022-12-16T11:38:26;26.80;;;16.33;;
3779;SDS011;1905;52.482;9.802;2022-12-16T11:41:22;18.80;;;13.33;;
3779;SDS011;1905;52.482;9.802;2022-12-16T11:44:12;25.00;;;12.70;;
3779;SDS011;1905;52.482;9.802;2022-12-16T11:47:03;27.17;;;14.30;;
3779;SDS011;1905;52.482;9.802;2022-12-16T11:49:55;30.80;;;16.30;;
3779;SDS011;1905;52.482;9.802;2022-12-16T11:52:42;23.87;;;14.20;;
3779;SDS011;1905;52.482;9.802;2022-12-16T11:55:36;15.73;;;12.00;;
3779;SDS011;1905;52.482;9.802;2022-12-16T11:58:39;22.20;;;15.63;;
3779;SDS011;1905;52.482;9.802;2022-12-16T12:01:29;19.17;;;11.63;;
3779;SDS011;1905;52.482;9.802;2022-12-16T12:04:20;20.37;;;14.73;;
3779;SDS011;1905;52.482;9.802;2022-12-16T12:07:10;22.67;;;16.73;;
3779;SDS011;1905;52.482;9.802;2022-12-16T12:10:16;23.27;;;14.40;;
3779;SDS011;1905;52.482;9.802;2022-12-16T12:13:18;21.90;;;14.90;;
3779;SDS011;1905;52.482;9.802;2022-12-16T12:16:19;20.63;;;14.07;;
3779;SDS011;1905;52.482;9.802;2022-12-16T12:19:12;26.00;;;15.50;;
3779;SDS011;1905;52.482;9.802;2022-12-16T12:22:09;25.37;;;14.50;;
3779;SDS011;1905;52.482;9.802;2022-12-16T12:25:02;25.37;;;15.77;;
3779;SDS011;1905;52.482;9.802;2022-12-16T12:27:54;29.20;;;13.83;;
3779;SDS011;1905;52.482;9.802;2022-12-16T12:30:49;22.23;;;14.70;;
3779;SDS011;1905;52.482;9.802;2022-12-16T12:33:50;22.13;;;13.93;;
3779;SDS011;1905;52.482;9.802;2022-12-16T12:36:45;29.73;;;15.80;;
3779;SDS011;1905;52.482;9.802;2022-12-16T12:39:39;26.30;;;14.70;;
3779;SDS011;1905;52.482;9.802;2022-12-16T12:42:31;22.10;;;14.03;;
3779;SDS011;1905;52.482;9.802;2022-12-16T12:45:26;30.03;;;17.97;;
3779;SDS011;1905;52.482;9.802;2022-12-16T12:48:30;32.20;;;18.93;;
3779;SDS011;1905;52.482;9.802;2022-12-16T12:51:24;26.17;;;17.13;;
3779;SDS011;1905;52.482;9.802;2022-12-16T12:54:16;38.77;;;21.47;;
3779;SDS011;1905;52.482;9.802;2022-12-16T12:57:07;29.30;;;15.30;;
3779;SDS011;1905;52.482;9.802;2022-12-16T12:59:57;24.53;;;13.50;;
3779;SDS011;1905;52.482;9.802;2022-12-16T13:02:48;25.73;;;17.50;;
3779;SDS011;1905;52.482;9.802;2022-12-16T13:05:43;29.73;;;18.33;;
3779;SDS011;1905;52.482;9.802;2022-12-16T13:08:30;22.30;;;14.40;;
3779;SDS011;1905;52.482;9.802;2022-12-16T13:11:17;29.23;;;15.70;;
3779;SDS011;1905;52.482;9.802;2022-12-16T13:14:02;24.13;;;12.67;;
3779;SDS011;1905;52.482;9.802;2022-12-16T13:17:27;22.90;;;15.23;;
3779;SDS011;1905;52.482;9.802;2022-12-16T13:20:34;19.63;;;12.43;;
3779;SDS011;1905;52.482;9.802;2022-12-16T13:23:26;25.70;;;14.03;;
3779;SDS011;1905;52.482;9.802;2022-12-16T13:26:14;26.00;;;14.50;;
3779;SDS011;1905;52.482;9.802;2022-12-16T13:29:01;25.93;;;15.23;;
3779;SDS011;1905;52.482;9.802;2022-12-16T13:32:02;31.70;;;15.20;;
3779;SDS011;1905;52.482;9.802;2022-12-16T13:35:00;26.50;;;14.93;;
3779;SDS011;1905;52.482;9.802;2022-12-16T13:37:51;32.03;;;17.27;;
3779;SDS011;1905;52.482;9.802;2022-12-16T13:40:47;21.50;;;14.40;;
3779;SDS011;1905;52.482;9.802;2022-12-16T13:43:44;25.10;;;12.73;;
3779;SDS011;1905;52.482;9.802;2022-12-16T13:46:38;28.90;;;16.33;;
3779;SDS011;1905;52.482;9.802;2022-12-16T13:49:40;17.53;;;12.77;;
3779;SDS011;1905;52.482;9.802;2022-12-16T13:52:36;28.30;;;14.33;;
3779;SDS011;1905;52.482;9.802;2022-12-16T13:55:30;34.10;;;16.83;;
3779;SDS011;1905;52.482;9.802;2022-12-16T13:58:20;32.63;;;16.50;;
3779;SDS011;1905;52.482;9.802;2022-12-16T14:01:15;20.77;;;14.30;;
3779;SDS011;1905;52.482;9.802;2022-12-16T14:04:07;27.47;;;14.20;;
3779;SDS011;1905;52.482;9.802;2022-12-16T14:06:54;36.90;;;15.93;;
3779;SDS011;1905;52.482;9.802;2022-12-16T14:15:50;25.43;;;12.60;;
3779;SDS011;1905;52.482;9.802;2022-12-16T14:18:58;19.73;;;12.77;;
3779;SDS011;1905;52.482;9.802;2022-12-16T14:21:57;20.27;;;13.60;;
3779;SDS011;1905;52.482;9.802;2022-12-16T14:24:48;27.67;;;13.50;;
3779;SDS011;1905;52.482;9.802;2022-12-16T14:27:36;27.00;;;14.70;;
3779;SDS011;1905;52.482;9.802;2022-12-16T14:30:22;21.10;;;12.70;;
3779;SDS011;1905;52.482;9.802;2022-12-16T14:33:16;27.20;;;14.83;;
3779;SDS011;1905;52.482;9.802;2022-12-16T14:36:16;24.97;;;15.43;;
3779;SDS011;1905;52.482;9.802;2022-12-16T14:39:02;21.17;;;12.80;;
3779;SDS011;1905;52.482;9.802;2022-12-16T14:41:52;26.37;;;14.90;;
3779;SDS011;1905;52.482;9.802;2022-12-16T14:44:39;23.23;;;14.57;;
3779;SDS011;1905;52.482;9.802;2022-12-16T14:47:24;31.93;;;15.90;;
3779;SDS011;1905;52.482;9.802;2022-12-16T14:50:16;33.33;;;14.90;;
3779;SDS011;1905;52.482;9.802;2022-12-16T14:53:11;20.73;;;13.90;;
3779;SDS011;1905;52.482;9.802;2022-12-16T14:56:09;25.80;;;13.47;;
3779;SDS011;1905;52.482;9.802;2022-12-16T14:59:05;21.70;;;12.97;;
3779;SDS011;1905;52.482;9.802;2022-12-16T15:01:59;21.97;;;11.90;;
3779;SDS011;1905;52.482;9.802;2022-12-16T15:04:55;17.57;;;12.87;;
3779;SDS011;1905;52.482;9.802;2022-12-16T15:07:40;28.43;;;15.07;;
3779;SDS011;1905;52.482;9.802;2022-12-16T15:10:26;26.47;;;17.30;;
3779;SDS011;1905;52.482;9.802;2022-12-16T15:13:13;16.57;;;13.77;;
3779;SDS011;1905;52.482;9.802;2022-12-16T15:16:01;22.73;;;12.30;;
3779;SDS011;1905;52.482;9.802;2022-12-16T15:18:52;21.80;;;12.67;;
3779;SDS011;1905;52.482;9.802;2022-12-16T15:21:43;25.90;;;12.23;;
3779;SDS011;1905;52.482;9.802;2022-12-16T15:24:28;27.23;;;13.90;;
3779;SDS011;1905;52.482;9.802;2022-12-16T15:27:22;26.70;;;13.57;;
3779;SDS011;1905;52.482;9.802;2022-12-16T15:30:30;25.97;;;15.47;;
3779;SDS011;1905;52.482;9.802;2022-12-16T15:33:19;23.23;;;14.63;;
3779;SDS011;1905;52.482;9.802;2022-12-16T15:36:12;27.77;;;15.00;;
3779;SDS011;1905;52.482;9.802;2022-12-16T15:39:10;26.37;;;14.00;;
3779;SDS011;1905;52.482;9.802;2022-12-16T15:42:02;26.77;;;15.10;;
3779;SDS011;1905;52.482;9.802;2022-12-16T15:44:49;24.07;;;15.40;;
3779;SDS011;1905;52.482;9.802;2022-12-16T15:47:37;29.23;;;15.30;;
3779;SDS011;1905;52.482;9.802;2022-12-16T15:50:23;27.23;;;16.47;;
3779;SDS011;1905;52.482;9.802;2022-12-16T15:53:15;21.90;;;14.87;;
3779;SDS011;1905;52.482;9.802;2022-12-16T15:56:18;33.77;;;16.67;;
3779;SDS011;1905;52.482;9.802;2022-12-16T15:59:22;26.23;;;15.70;;
3779;SDS011;1905;52.482;9.802;2022-12-16T16:02:15;24.40;;;14.17;;
3779;SDS011;1905;52.482;9.802;2022-12-16T16:05:08;28.20;;;14.50;;
3779;SDS011;1905;52.482;9.802;2022-12-16T16:07:55;30.57;;;16.30;;
3779;SDS011;1905;52.482;9.802;2022-12-16T16:10:53;26.63;;;16.73;;
3779;SDS011;1905;52.482;9.802;2022-12-16T16:13:38;29.20;;;16.10;;
3779;SDS011;1905;52.482;9.802;2022-12-16T16:16:32;32.63;;;15.30;;
3779;SDS011;1905;52.482;9.802;2022-12-16T16:19:19;34.60;;;18.77;;
3779;SDS011;1905;52.482;9.802;2022-12-16T16:22:08;34.23;;;23.20;;
3779;SDS011;1905;52.482;9.802;2022-12-16T16:24:55;34.77;;;20.03;;
3779;SDS011;1905;52.482;9.802;2022-12-16T16:27:41;36.17;;;21.57;;
3779;SDS011;1905;52.482;9.802;2022-12-16T16:30:27;32.03;;;18.17;;
3779;SDS011;1905;52.482;9.802;2022-12-16T16:33:11;25.67;;;16.53;;
3779;SDS011;1905;52.482;9.802;2022-12-16T16:35:58;27.90;;;17.27;;
3779;SDS011;1905;52.482;9.802;2022-12-16T16:38:43;28.33;;;16.07;;
3779;SDS011;1905;52.482;9.802;2022-12-16T16:41:34;35.83;;;18.30;;
3779;SDS011;1905;52.482;9.802;2022-12-16T16:44:26;28.17;;;15.40;;
3779;SDS011;1905;52.482;9.802;2022-12-16T16:47:14;36.13;;;20.10;;
3779;SDS011;1905;52.482;9.802;2022-12-16T16:50:00;33.83;;;16.20;;
3779;SDS011;1905;52.482;9.802;2022-12-16T16:52:46;34.00;;;19.43;;